createdAt,value
2022-10-16T00:01:56.311Z,100020.44
2022-10-16T00:06:59.030Z,100023.16
2022-10-16T00:12:04.878Z,100027.53
2022-10-16T00:17:07.554Z,100031.09
2022-10-16T00:22:10.309Z,100036.63
2022-10-16T00:27:14.361Z,100030.94
2022-10-16T00:32:17.000Z,100041.84
2022-10-16T00:37:19.665Z,100048.94
2022-10-16T00:42:23.905Z,100050.94
2022-10-16T00:47:28.651Z,100051.47
2022-10-16T00:52:31.536Z,100063.25
2022-10-16T00:57:35.601Z,100059.84
2022-10-16T01:02:38.267Z,100061.25
2022-10-16T01:07:45.511Z,100049.78
2022-10-16T01:12:52.198Z,100049.94
2022-10-16T01:17:57.299Z,100045.09
2022-10-16T01:23:10.133Z,100053.88
2022-10-16T01:28:14.264Z,100059.56
2022-10-16T01:33:18.709Z,100061.13
2022-10-16T01:38:22.789Z,100051.19
2022-10-16T01:43:28.896Z,100060.13
2022-10-16T01:48:31.820Z,100057.72
2022-10-16T01:53:34.492Z,100060.28
2022-10-16T01:58:40.147Z,100078.97
2022-10-16T02:03:43.044Z,100075.31
2022-10-16T02:08:45.989Z,100069.34
2022-10-16T02:13:51.867Z,100071.03
2022-10-16T02:18:54.532Z,100071.19
2022-10-16T02:23:59.765Z,100061.41
2022-10-16T02:29:06.437Z,100058.72
2022-10-16T02:34:09.287Z,100077.41
2022-10-16T02:39:11.981Z,100085.50
2022-10-16T02:44:16.178Z,100093.16
2022-10-16T02:49:19.726Z,100093.03
2022-10-16T02:54:22.614Z,100096.72
2022-10-16T02:59:26.722Z,100081.66
2022-10-16T03:04:29.444Z,100086.94
2022-10-16T03:09:32.459Z,100086.94
2022-10-16T03:14:36.449Z,100094.72
2022-10-16T03:19:39.415Z,100089.34
2022-10-16T03:24:42.095Z,100104.66
2022-10-16T03:29:46.260Z,100093.16
2022-10-16T03:34:48.940Z,100101.09
2022-10-16T03:39:51.600Z,100105.06
2022-10-16T03:44:55.687Z,100121.94
2022-10-16T03:49:58.631Z,100114.44
2022-10-16T03:55:01.634Z,100122.50
2022-10-16T04:00:06.531Z,100101.81
2022-10-16T04:05:14.781Z,100105.50
2022-10-16T04:10:17.822Z,100110.19
2022-10-16T04:15:22.016Z,100105.50
2022-10-16T04:20:24.951Z,100102.25
2022-10-16T04:25:27.619Z,100103.94
2022-10-16T04:30:31.832Z,100112.59
2022-10-16T04:35:34.549Z,100127.91
2022-10-16T04:40:40.905Z,100155.53
2022-10-16T04:45:44.930Z,100135.81
2022-10-16T04:50:51.716Z,100151.28
2022-10-16T04:55:58.206Z,100156.81
2022-10-16T05:01:02.422Z,100151.44
2022-10-16T05:06:07.295Z,100172.69
2022-10-16T05:11:10.223Z,100176.66
2022-10-16T05:16:14.420Z,100181.63
2022-10-16T05:21:17.128Z,100185.00
2022-10-16T05:26:19.756Z,100179.06
2022-10-16T05:31:23.753Z,100176.09
2022-10-16T05:36:26.787Z,100179.78
2022-10-16T05:41:29.469Z,100186.16
2022-10-16T05:46:33.714Z,100200.59
2022-10-16T05:51:36.447Z,100200.59
2022-10-16T05:56:39.369Z,100209.53
2022-10-16T06:01:43.465Z,100206.13
2022-10-16T06:06:46.118Z,100212.38
2022-10-16T06:11:48.781Z,100226.41
2022-10-16T06:16:52.849Z,100223.16
2022-10-16T06:21:55.664Z,100236.34
2022-10-16T06:26:58.457Z,100220.31
2022-10-16T06:32:02.653Z,100227.13
2022-10-16T06:37:05.448Z,100236.94
2022-10-16T06:42:08.113Z,100254.94
2022-10-16T06:47:13.680Z,100254.78
2022-10-16T06:52:16.906Z,100262.03
2022-10-16T06:57:19.765Z,100272.78
2022-10-16T07:02:23.943Z,100270.81
2022-10-16T07:07:27.608Z,100281.72
2022-10-16T07:12:30.326Z,100271.81
2022-10-16T07:17:34.770Z,100276.34
2022-10-16T07:22:37.681Z,100276.47
2022-10-16T07:27:40.694Z,100265.81
2022-10-16T07:32:44.746Z,100246.13
2022-10-16T07:37:47.612Z,100251.47
2022-10-16T07:42:50.275Z,100279.19
2022-10-16T07:47:54.265Z,100297.16
2022-10-16T07:52:57.174Z,100303.53
2022-10-16T07:57:59.797Z,100300.44
2022-10-16T08:03:03.813Z,100303.00
2022-10-16T08:08:06.517Z,100315.63
2022-10-16T08:13:09.279Z,100323.69
2022-10-16T08:18:13.685Z,100328.38
2022-10-16T08:23:16.531Z,100337.31
2022-10-16T08:28:19.322Z,100334.63
2022-10-16T08:33:23.392Z,100348.94
2022-10-16T08:38:26.061Z,100352.34
2022-10-16T08:43:38.143Z,100348.78
2022-10-16T08:48:45.579Z,100332.50
2022-10-16T08:53:51.185Z,100363.69
2022-10-16T08:58:57.956Z,100358.44
2022-10-16T09:04:36.058Z,100382.69
2022-10-16T09:09:47.169Z,100396.00
2022-10-16T09:14:55.510Z,100404.09
2022-10-16T09:20:12.560Z,100415.84
2022-10-16T09:25:16.715Z,100403.00
2022-10-16T09:30:20.570Z,100383.53
2022-10-16T09:35:28.827Z,100390.50
2022-10-16T09:40:32.815Z,100389.66
2022-10-16T09:45:35.717Z,100406.69
2022-10-16T09:50:39.752Z,100427.38
2022-10-16T09:55:51.908Z,100427.25
2022-10-16T10:00:55.221Z,100425.41
2022-10-16T10:06:01.988Z,100421.00
2022-10-16T10:11:05.739Z,100433.47
2022-10-16T10:16:08.403Z,100433.47
2022-10-16T10:21:15.920Z,100440.44
2022-10-16T10:26:19.968Z,100444.13
2022-10-16T10:31:24.268Z,100444.97
2022-10-16T10:36:31.330Z,100448.66
2022-10-16T10:42:12.610Z,100446.25
2022-10-16T10:47:18.698Z,100450.63
2022-10-16T10:52:37.861Z,100449.09
2022-10-16T10:57:43.632Z,100455.75
2022-10-16T11:02:49.349Z,100456.19
2022-10-16T11:07:54.768Z,100450.69
2022-10-16T11:12:59.259Z,100452.53
2022-10-16T11:18:05.166Z,100469.59
2022-10-16T11:23:12.168Z,100463.06
2022-10-16T11:28:16.421Z,100460.94
2022-10-16T11:33:32.299Z,100466.06
2022-10-16T11:38:37.190Z,100463.00
2022-10-16T11:43:40.727Z,100467.38
2022-10-16T11:48:45.233Z,100467.25
2022-10-16T11:53:53.047Z,100469.38
2022-10-16T11:58:58.700Z,100471.22
2022-10-16T12:04:16.114Z,100468.03
2022-10-16T12:09:23.010Z,100476.25
2022-10-16T12:14:57.308Z,100477.38
2022-10-16T12:20:01.710Z,100485.97
2022-10-16T12:25:06.885Z,100488.78
2022-10-16T12:30:17.038Z,100491.63
2022-10-16T12:35:21.891Z,100494.50
2022-10-16T12:40:30.609Z,100489.97
2022-10-16T12:45:34.586Z,100478.34
2022-10-16T12:50:38.470Z,100486.22
2022-10-16T12:55:48.707Z,100486.00
2022-10-16T13:00:55.471Z,100489.91
2022-10-16T13:06:05.552Z,100497.00
2022-10-16T13:11:12.510Z,100501.66
2022-10-16T13:16:19.394Z,100505.25
2022-10-16T13:21:33.275Z,100516.50
2022-10-16T13:26:41.129Z,100521.25
2022-10-16T13:31:44.505Z,100518.72
2022-10-16T13:36:48.315Z,100506.59
2022-10-16T13:42:06.259Z,100513.34
2022-10-16T13:47:18.759Z,100509.28
2022-10-16T13:52:22.381Z,100511.91
2022-10-16T13:57:27.726Z,100529.53
2022-10-16T14:02:33.212Z,100543.84
2022-10-16T14:07:35.904Z,100544.38
2022-10-16T14:12:40.065Z,100547.41
2022-10-16T14:17:45.792Z,100547.78
2022-10-16T14:22:48.794Z,100553.66
2022-10-16T14:33:21.445Z,100560.03
2022-10-16T14:38:24.211Z,100565.16
2022-10-16T14:43:33.619Z,100560.75
2022-10-16T14:48:36.350Z,100570.06
2022-10-16T14:53:39.099Z,100576.44
2022-10-16T14:58:43.351Z,100571.31
2022-10-16T15:03:46.211Z,100583.19
2022-10-16T15:08:49.101Z,100580.03
2022-10-16T15:13:53.162Z,100589.66
2022-10-16T15:18:56.004Z,100589.78
2022-10-16T15:23:59.224Z,100587.56
2022-10-16T15:29:03.269Z,100595.53
2022-10-16T15:34:06.950Z,100602.44
2022-10-16T15:39:14.169Z,100603.28
2022-10-16T15:44:18.233Z,100612.94
2022-10-16T15:49:20.939Z,100618.91
2022-10-16T15:54:23.824Z,100625.91
2022-10-16T15:59:27.852Z,100632.59
2022-10-16T16:04:43.522Z,100647.66
2022-10-16T16:09:47.108Z,100662.47
2022-10-16T16:14:52.184Z,100649.72
2022-10-16T16:19:55.102Z,100647.88
2022-10-16T16:24:57.834Z,100657.56
2022-10-16T16:30:02.032Z,100663.81
2022-10-16T16:35:05.605Z,100663.81
2022-10-16T16:40:08.828Z,100654.88
2022-10-16T16:45:12.863Z,100671.75
2022-10-16T16:50:15.677Z,100673.59
2022-10-16T16:55:18.347Z,100700.97
2022-10-16T17:00:22.329Z,100708.06
2022-10-16T17:05:25.093Z,100721.34
2022-10-16T17:10:27.759Z,100718.53
2022-10-16T17:15:31.811Z,100720.84
2022-10-16T17:20:37.698Z,100721.69
2022-10-16T17:25:40.471Z,100726.84
2022-10-16T17:30:44.497Z,100737.50
2022-10-16T17:35:47.765Z,100733.69
2022-10-16T17:40:50.524Z,100742.34
2022-10-16T17:45:54.630Z,100746.03
2022-10-16T17:50:59.991Z,100756.09
2022-10-16T17:56:06.247Z,100763.91
2022-10-16T18:01:16.668Z,100763.81
2022-10-16T18:06:22.806Z,100761.00
2022-10-16T18:11:26.186Z,100763.91
2022-10-16T18:16:30.731Z,100757.41
2022-10-16T18:21:33.475Z,100768.81
2022-10-16T18:26:36.156Z,100785.09
2022-10-16T18:31:42.692Z,100779.59
2022-10-16T18:36:45.754Z,100780.31
2022-10-16T18:41:59.428Z,100797.47
2022-10-16T18:47:03.466Z,100801.25
2022-10-16T18:52:06.420Z,100801.38
2022-10-16T18:57:09.116Z,100809.31
2022-10-16T19:02:13.621Z,100807.13
2022-10-16T19:07:17.119Z,100793.03
2022-10-16T19:12:19.777Z,100792.91
2022-10-16T19:17:23.830Z,100795.72
2022-10-16T19:22:40.792Z,100800.88
2022-10-16T19:27:43.515Z,100803.59
2022-10-16T19:32:49.451Z,100816.81
2022-10-16T19:37:52.412Z,100828.31
2022-10-16T19:42:55.143Z,100828.44
2022-10-16T19:47:59.153Z,100830.16
2022-10-16T19:53:01.881Z,100833.44
2022-10-16T19:58:04.535Z,100836.38
2022-10-16T20:03:08.569Z,100830.00
2022-10-16T20:08:11.334Z,100846.06
2022-10-16T20:13:14.001Z,100865.03
2022-10-16T20:18:18.253Z,100873.50
2022-10-16T20:23:20.970Z,100883.44
2022-10-16T20:28:23.756Z,100881.00
2022-10-16T20:33:27.906Z,100889.94
2022-10-16T20:38:30.925Z,100882.06
2022-10-16T20:43:33.693Z,100888.44
2022-10-16T20:48:41.000Z,100886.38
2022-10-16T20:53:43.894Z,100883.78
2022-10-16T20:58:46.802Z,100888.31
2022-10-16T21:03:54.975Z,100901.69
2022-10-16T21:08:59.202Z,100894.81
2022-10-16T21:14:02.515Z,100912.81
2022-10-16T21:19:06.603Z,100919.78
2022-10-16T21:24:12.235Z,100910.84
2022-10-16T21:29:17.759Z,100900.34
2022-10-16T21:34:21.741Z,100910.38
2022-10-16T21:39:24.475Z,100899.81
2022-10-16T21:44:27.491Z,100913.44
2022-10-16T21:49:31.686Z,100908.16
2022-10-16T21:54:34.295Z,100900.22
2022-10-16T21:59:36.935Z,100898.63
2022-10-16T22:04:40.932Z,100901.19
2022-10-16T22:09:43.748Z,100908.75
2022-10-16T22:14:46.703Z,100910.84
2022-10-16T22:19:51.151Z,100916.38
2022-10-16T22:24:53.810Z,100919.28
2022-10-16T22:29:56.549Z,100921.03
2022-10-16T22:35:00.545Z,100927.59
2022-10-16T22:40:03.172Z,100918.66
2022-10-16T22:45:06.674Z,100902.25
2022-10-16T22:50:10.847Z,100904.72
2022-10-16T22:55:13.467Z,100894.44
2022-10-16T23:00:17.841Z,100903.34
2022-10-16T23:05:21.923Z,100895.16
2022-10-16T23:10:29.514Z,100901.53
2022-10-16T23:15:32.345Z,100907.88
2022-10-16T23:20:36.540Z,100917.06
2022-10-16T23:25:44.817Z,100917.06
2022-10-16T23:30:47.471Z,100910.88
2022-10-16T23:35:51.476Z,100912.72
2022-10-16T23:40:54.274Z,100909.44
2022-10-16T23:45:57.749Z,100906.13
2022-10-16T23:51:01.796Z,100898.13
2022-10-16T23:56:04.857Z,100905.28
